createdAt,value
2022-08-14T00:02:01.619Z,82.80
2022-08-14T00:04:36.158Z,82.90
2022-08-14T00:07:11.677Z,83.10
2022-08-14T00:09:55.968Z,83.10
2022-08-14T00:12:33.551Z,83.10
2022-08-14T00:15:22.983Z,83.30
2022-08-14T00:17:53.623Z,83.20
2022-08-14T00:20:31.015Z,83.20
2022-08-14T00:23:12.309Z,83.40
2022-08-14T00:25:53.845Z,83.40
2022-08-14T00:28:35.241Z,83.60
2022-08-14T00:31:03.672Z,83.70
2022-08-14T00:33:50.754Z,83.40
2022-08-14T00:36:36.539Z,83.40
2022-08-14T00:39:09.854Z,83.60
2022-08-14T00:41:39.070Z,83.70
2022-08-14T00:44:07.108Z,83.60
2022-08-14T00:46:37.162Z,83.50
2022-08-14T00:49:11.471Z,83.70
2022-08-14T00:51:44.164Z,83.90
2022-08-14T00:54:21.329Z,84.00
2022-08-14T00:56:51.622Z,84.10
2022-08-14T00:59:24.963Z,84.10
2022-08-14T01:01:55.026Z,84.20
2022-08-14T01:04:38.337Z,84.10
2022-08-14T01:07:19.753Z,84.40
2022-08-14T01:09:49.786Z,84.60
2022-08-14T01:12:26.559Z,85.40
2022-08-14T01:14:58.141Z,84.50
2022-08-14T01:17:49.289Z,84.20
2022-08-14T01:20:39.454Z,84.00
2022-08-14T01:23:15.639Z,83.60
2022-08-14T01:25:46.016Z,83.60
2022-08-14T01:28:46.408Z,83.60
2022-08-14T01:31:02.411Z,83.30
2022-08-14T01:33:39.604Z,83.10
2022-08-14T01:36:23.233Z,83.30
2022-08-14T01:38:53.555Z,82.60
2022-08-14T01:41:30.149Z,82.50
2022-08-14T01:44:02.417Z,82.40
2022-08-14T01:46:33.343Z,82.50
2022-08-14T01:49:08.056Z,82.50
2022-08-14T01:51:37.075Z,82.60
2022-08-14T01:54:10.353Z,82.60
2022-08-14T01:56:44.504Z,83.00
2022-08-14T01:59:22.001Z,83.20
2022-08-14T02:01:59.171Z,83.20
2022-08-14T02:04:55.611Z,83.10
2022-08-14T02:07:17.586Z,83.10
2022-08-14T02:10:06.487Z,82.90
2022-08-14T02:12:34.805Z,82.90
2022-08-14T02:15:02.724Z,82.70
2022-08-14T02:17:31.070Z,83.00
2022-08-14T02:19:59.597Z,83.10
2022-08-14T02:22:32.788Z,83.40
2022-08-14T02:25:01.453Z,83.40
2022-08-14T02:28:22.589Z,83.70
2022-08-14T02:30:18.540Z,83.70
2022-08-14T02:32:46.858Z,83.70
2022-08-14T02:35:18.740Z,83.70
2022-08-14T02:37:49.120Z,83.90
2022-08-14T02:40:18.409Z,83.80
2022-08-14T02:42:54.963Z,83.80
2022-08-14T02:45:33.612Z,83.90
2022-08-14T02:48:10.512Z,84.20
2022-08-14T02:50:55.669Z,84.20
2022-08-14T02:53:23.667Z,84.40
2022-08-14T02:55:52.465Z,84.60
2022-08-14T02:58:30.644Z,84.60
2022-08-14T03:00:59.131Z,84.70
2022-08-14T03:03:27.548Z,84.80
2022-08-14T03:05:55.475Z,84.90
2022-08-14T03:08:23.537Z,85.00
2022-08-14T03:10:53.413Z,84.60
2022-08-14T03:13:27.336Z,84.60
2022-08-14T03:15:57.987Z,84.30
2022-08-14T03:18:31.150Z,83.80
2022-08-14T03:21:04.393Z,83.60
2022-08-14T03:23:38.120Z,83.30
2022-08-14T03:26:08.917Z,83.20
2022-08-14T03:28:43.388Z,82.80
2022-08-14T03:31:13.310Z,82.80
2022-08-14T03:33:42.997Z,82.40
2022-08-14T03:37:50.884Z,82.50
2022-08-14T03:39:12.749Z,82.60
2022-08-14T03:41:47.582Z,82.60
2022-08-14T03:45:18.684Z,82.40
2022-08-14T03:47:06.600Z,83.30
2022-08-14T03:49:42.294Z,82.50
2022-08-14T03:52:27.983Z,82.40
2022-08-14T03:55:00.393Z,82.70
2022-08-14T03:57:32.900Z,82.70
2022-08-14T04:00:14.053Z,82.60
2022-08-14T04:02:58.780Z,82.50
2022-08-14T04:05:27.044Z,82.90
2022-08-14T04:08:08.324Z,82.90
2022-08-14T04:10:42.802Z,82.90
2022-08-14T04:13:12.242Z,83.00
2022-08-14T04:15:56.165Z,83.10
2022-08-14T04:18:30.488Z,83.20
2022-08-14T04:20:59.100Z,83.20
2022-08-14T04:23:32.890Z,83.30
2022-08-14T04:26:02.939Z,83.40
2022-08-14T04:29:07.589Z,83.60
2022-08-14T04:31:24.780Z,83.30
2022-08-14T04:33:53.342Z,83.20
2022-08-14T04:36:21.924Z,83.40
2022-08-14T04:39:20.831Z,83.50
2022-08-14T04:42:09.261Z,84.70
2022-08-14T04:44:40.013Z,83.90
2022-08-14T04:47:30.746Z,83.80
2022-08-14T04:49:59.293Z,83.90
2022-08-14T04:52:31.597Z,83.90
2022-08-14T04:55:06.124Z,83.60
2022-08-14T04:57:34.776Z,83.80
2022-08-14T05:00:02.618Z,84.00
2022-08-14T05:02:34.690Z,84.00
2022-08-14T05:05:04.744Z,84.00
2022-08-14T05:07:46.324Z,83.70
2022-08-14T05:10:16.338Z,83.90
2022-08-14T05:13:11.184Z,83.90
2022-08-14T05:15:36.262Z,83.70
2022-08-14T05:18:37.205Z,83.60
2022-08-14T05:21:55.938Z,83.50
2022-08-14T05:23:51.877Z,83.60
2022-08-14T05:26:22.090Z,83.50
2022-08-14T05:28:49.943Z,83.60
2022-08-14T05:31:20.498Z,83.40
2022-08-14T05:33:54.629Z,83.60
2022-08-14T05:36:25.648Z,83.80
2022-08-14T05:38:55.344Z,83.80
2022-08-14T05:41:23.442Z,84.00
2022-08-14T05:44:07.895Z,84.20
2022-08-14T05:46:35.725Z,84.20
2022-08-14T05:49:07.037Z,84.20
2022-08-14T05:51:36.925Z,84.00
2022-08-14T05:54:13.578Z,83.70
2022-08-14T05:56:45.010Z,83.80
2022-08-14T05:59:12.844Z,83.80
2022-08-14T06:01:44.582Z,83.80
2022-08-14T06:04:15.877Z,83.70
2022-08-14T06:06:43.762Z,83.80
2022-08-14T06:09:11.576Z,83.90
2022-08-14T06:11:39.679Z,83.80
2022-08-14T06:14:12.328Z,83.90
2022-08-14T06:16:48.633Z,83.90
2022-08-14T06:19:18.543Z,84.00
2022-08-14T06:21:46.461Z,84.10
2022-08-14T06:24:18.742Z,84.20
2022-08-14T06:26:51.949Z,84.30
2022-08-14T06:29:25.100Z,84.40
2022-08-14T06:31:54.535Z,84.30
2022-08-14T06:35:02.281Z,84.30
2022-08-14T06:37:18.762Z,84.60
2022-08-14T06:39:47.085Z,84.40
2022-08-14T06:42:31.314Z,84.60
2022-08-14T06:45:01.473Z,84.60
2022-08-14T06:47:31.010Z,85.00
2022-08-14T06:50:00.227Z,85.10
2022-08-14T06:52:28.110Z,85.30
2022-08-14T06:54:58.074Z,85.30
2022-08-14T06:57:35.022Z,85.30
2022-08-14T07:00:03.135Z,85.50
2022-08-14T07:02:48.342Z,85.90
2022-08-14T07:05:35.384Z,86.10
2022-08-14T07:08:06.427Z,86.10
2022-08-14T07:10:34.866Z,86.40
2022-08-14T07:13:04.328Z,86.30
2022-08-14T07:15:39.583Z,86.60
2022-08-14T07:18:12.034Z,86.20
2022-08-14T07:20:43.196Z,86.00
2022-08-14T07:23:20.889Z,85.90
2022-08-14T07:25:51.400Z,85.90
2022-08-14T07:28:23.340Z,85.90
2022-08-14T07:30:52.311Z,86.40
2022-08-14T07:33:28.899Z,86.70
2022-08-14T07:36:01.847Z,86.70
2022-08-14T07:38:37.690Z,87.00
2022-08-14T07:41:14.786Z,86.40
2022-08-14T07:43:52.950Z,86.00
2022-08-14T07:46:28.418Z,86.10
2022-08-14T07:48:57.874Z,86.30
2022-08-14T07:51:36.670Z,85.90
2022-08-14T07:54:11.019Z,85.30
2022-08-14T07:56:48.083Z,85.10
2022-08-14T07:59:18.918Z,84.50
2022-08-14T08:01:51.593Z,84.10
2022-08-14T08:04:27.066Z,83.90
2022-08-14T08:06:56.780Z,84.00
2022-08-14T08:09:31.997Z,83.90
2022-08-14T08:12:05.098Z,83.80
2022-08-14T08:14:56.183Z,83.20
2022-08-14T08:17:26.261Z,83.00
2022-08-14T08:20:02.477Z,83.00
2022-08-14T08:22:32.329Z,83.20
2022-08-14T08:25:00.810Z,83.20
2022-08-14T08:27:28.773Z,82.90
2022-08-14T08:30:10.230Z,82.60
2022-08-14T08:32:41.183Z,82.50
2022-08-14T08:35:17.977Z,82.40
2022-08-14T08:37:47.805Z,82.20
2022-08-14T08:40:31.231Z,82.20
2022-08-14T08:43:00.298Z,81.90
2022-08-14T08:45:29.287Z,82.00
2022-08-14T08:47:57.196Z,81.60
2022-08-14T08:50:31.209Z,81.60
2022-08-14T08:53:01.921Z,81.50
2022-08-14T08:55:33.971Z,81.70
2022-08-14T08:58:05.239Z,81.70
2022-08-14T09:00:36.261Z,81.60
2022-08-14T09:03:07.350Z,81.10
2022-08-14T09:05:40.303Z,81.00
2022-08-14T09:08:30.227Z,81.00
2022-08-14T09:11:01.244Z,81.00
2022-08-14T09:13:30.634Z,81.20
2022-08-14T09:16:01.940Z,81.30
2022-08-14T09:18:47.650Z,81.40
2022-08-14T09:21:16.143Z,81.40
2022-08-14T09:24:25.932Z,81.00
2022-08-14T09:26:34.596Z,80.50
2022-08-14T09:29:02.967Z,80.30
2022-08-14T09:31:43.170Z,80.30
2022-08-14T09:34:30.395Z,80.10
2022-08-14T09:37:12.857Z,79.90
2022-08-14T09:39:57.650Z,79.50
2022-08-14T09:42:50.987Z,78.90
2022-08-14T09:45:20.809Z,78.40
2022-08-14T09:47:52.462Z,78.30
2022-08-14T09:50:26.153Z,78.10
2022-08-14T09:52:58.105Z,77.90
2022-08-14T09:55:33.397Z,77.40
2022-08-14T09:58:15.062Z,77.00
2022-08-14T10:00:50.108Z,76.50
2022-08-14T10:03:30.255Z,76.40
2022-08-14T10:06:09.379Z,76.60
2022-08-14T10:08:51.182Z,76.60
2022-08-14T10:11:23.406Z,76.70
2022-08-14T10:13:54.404Z,76.40
2022-08-14T10:16:27.587Z,76.20
2022-08-14T10:19:09.929Z,75.90
2022-08-14T10:21:58.485Z,76.00
2022-08-14T10:24:36.927Z,75.60
2022-08-14T10:27:18.249Z,75.60
2022-08-14T10:29:50.203Z,75.60
2022-08-14T10:32:28.512Z,75.50
2022-08-14T10:35:13.620Z,75.10
2022-08-14T10:37:46.435Z,75.00
2022-08-14T10:40:38.035Z,75.10
2022-08-14T10:43:18.946Z,74.90
2022-08-14T10:45:59.723Z,74.30
2022-08-14T10:48:57.485Z,74.30
2022-08-14T10:51:27.117Z,74.40
2022-08-14T10:54:01.830Z,74.50
2022-08-14T10:56:45.512Z,74.30
2022-08-14T10:59:15.272Z,74.40
2022-08-14T11:01:43.180Z,74.50
2022-08-14T11:04:25.084Z,74.80
2022-08-14T11:06:54.467Z,74.90
2022-08-14T11:09:22.455Z,75.00
2022-08-14T11:11:56.452Z,75.10
2022-08-14T11:14:58.495Z,74.40
2022-08-14T11:17:28.564Z,73.70
2022-08-14T11:20:02.881Z,73.70
2022-08-14T11:22:52.329Z,74.90
2022-08-14T11:25:23.504Z,74.00
2022-08-14T11:27:53.781Z,73.60
2022-08-14T11:30:49.832Z,73.20
2022-08-14T11:33:14.046Z,73.20
2022-08-14T11:35:49.828Z,73.20
2022-08-14T11:38:21.523Z,73.30
2022-08-14T11:40:49.528Z,73.40
2022-08-14T11:43:17.716Z,73.70
2022-08-14T11:45:49.488Z,73.60
2022-08-14T11:49:01.694Z,73.90
2022-08-14T11:51:24.161Z,73.80
2022-08-14T11:53:55.050Z,74.30
2022-08-14T11:56:25.216Z,74.70
2022-08-14T11:58:55.060Z,74.90
2022-08-14T12:01:28.756Z,75.10
2022-08-14T12:04:08.680Z,74.60
2022-08-14T12:06:56.717Z,74.70
2022-08-14T12:09:32.303Z,74.60
2022-08-14T12:12:00.420Z,74.60
2022-08-14T12:14:35.995Z,74.50
2022-08-14T12:17:13.434Z,74.50
2022-08-14T12:19:51.099Z,74.10
2022-08-14T12:22:37.225Z,74.00
2022-08-14T12:25:11.069Z,73.70
2022-08-14T12:27:51.986Z,73.50
2022-08-14T12:30:38.099Z,73.50
2022-08-14T12:33:22.025Z,73.30
2022-08-14T12:35:56.474Z,73.60
2022-08-14T12:38:38.087Z,74.10
2022-08-14T12:41:11.552Z,74.40
2022-08-14T12:43:51.495Z,74.00
2022-08-14T12:46:28.879Z,73.70
2022-08-14T12:49:02.293Z,73.60
2022-08-14T12:51:31.390Z,72.60
2022-08-14T12:54:00.434Z,72.40
2022-08-14T12:56:33.998Z,71.80
2022-08-14T12:59:03.235Z,71.40
2022-08-14T13:01:59.540Z,71.80
2022-08-14T13:04:22.893Z,72.00
2022-08-14T13:06:52.761Z,72.10
2022-08-14T13:09:21.233Z,72.10
2022-08-14T13:11:59.011Z,71.70
2022-08-14T13:14:48.712Z,71.20
2022-08-14T13:17:18.107Z,70.80
2022-08-14T13:19:48.229Z,71.20
2022-08-14T13:22:33.203Z,70.10
2022-08-14T13:25:05.798Z,70.10
2022-08-14T13:27:39.335Z,69.80
2022-08-14T13:30:14.484Z,69.40
2022-08-14T13:32:49.196Z,69.30
2022-08-14T13:35:20.076Z,69.60
2022-08-14T13:37:53.717Z,69.60
2022-08-14T13:40:26.235Z,69.50
2022-08-14T13:42:57.061Z,68.70
2022-08-14T13:45:33.672Z,68.70
2022-08-14T13:48:27.328Z,68.70
2022-08-14T13:51:07.896Z,68.80
2022-08-14T13:54:07.195Z,68.70
2022-08-14T13:56:39.450Z,68.10
2022-08-14T13:59:08.685Z,67.00
2022-08-14T14:01:43.390Z,66.80
2022-08-14T14:04:19.333Z,66.70
2022-08-14T14:06:51.965Z,67.50
2022-08-14T14:09:26.930Z,64.30
2022-08-14T14:12:38.584Z,60.20
2022-08-14T14:14:57.160Z,56.60
2022-08-14T14:17:29.048Z,53.10
2022-08-14T14:19:59.814Z,51.00
2022-08-14T14:23:00.913Z,50.20
2022-08-14T14:25:19.542Z,49.20
2022-08-14T14:27:53.465Z,48.80
2022-08-14T14:30:52.111Z,47.30
2022-08-14T14:33:42.197Z,47.30
2022-08-14T14:36:05.045Z,46.70
2022-08-14T14:38:34.987Z,46.50
2022-08-14T14:41:05.726Z,46.50
2022-08-14T14:43:37.306Z,46.70
2022-08-14T14:46:09.099Z,47.30
2022-08-14T14:48:44.269Z,47.40
2022-08-14T14:51:15.892Z,46.10
2022-08-14T14:53:46.986Z,46.60
2022-08-14T14:56:49.648Z,45.50
2022-08-14T14:59:03.246Z,46.60
2022-08-14T15:01:36.054Z,45.60
2022-08-14T15:04:07.917Z,46.30
2022-08-14T15:06:47.498Z,46.40
2022-08-14T15:09:17.616Z,46.00
2022-08-14T15:11:47.053Z,46.50
2022-08-14T15:14:56.259Z,45.40
2022-08-14T15:17:03.882Z,45.70
2022-08-14T15:19:32.475Z,46.00
2022-08-14T15:22:00.489Z,45.80
2022-08-14T15:24:29.671Z,46.30
2022-08-14T15:27:00.287Z,45.70
2022-08-14T15:29:28.469Z,46.40
2022-08-14T15:31:56.364Z,46.20
2022-08-14T15:34:43.571Z,46.80
2022-08-14T15:37:14.830Z,46.60
2022-08-14T15:39:46.078Z,46.70
2022-08-14T15:42:16.029Z,46.50
2022-08-14T15:44:56.915Z,46.80
2022-08-14T15:47:28.307Z,46.40
2022-08-14T15:49:59.093Z,46.00
2022-08-14T15:52:32.743Z,46.60
2022-08-14T15:55:06.724Z,46.90
2022-08-14T15:57:35.896Z,47.20
2022-08-14T16:00:43.583Z,47.40
2022-08-14T16:03:14.289Z,47.50
2022-08-14T16:05:45.963Z,48.00
2022-08-14T16:08:28.998Z,47.60
2022-08-14T16:11:01.085Z,47.90
2022-08-14T16:13:40.585Z,47.70
2022-08-14T16:16:47.433Z,48.20
2022-08-14T16:19:00.947Z,48.70
2022-08-14T16:21:31.603Z,48.90
2022-08-14T16:24:01.381Z,49.30
2022-08-14T16:26:33.316Z,49.60
2022-08-14T16:29:05.310Z,49.60
2022-08-14T16:31:36.625Z,49.30
2022-08-14T16:34:45.765Z,49.90
2022-08-14T16:36:54.151Z,50.20
2022-08-14T16:39:23.731Z,50.10
2022-08-14T16:41:53.905Z,50.10
2022-08-14T16:44:33.804Z,50.40
2022-08-14T16:47:04.243Z,50.90
2022-08-14T16:49:50.462Z,50.70
2022-08-14T16:52:26.261Z,50.70
2022-08-14T16:55:11.788Z,50.80
2022-08-14T16:57:50.217Z,51.00
2022-08-14T17:00:33.252Z,51.40
2022-08-14T17:03:13.393Z,51.80
2022-08-14T17:05:43.825Z,52.10
2022-08-14T17:08:31.673Z,52.50
2022-08-14T17:11:09.679Z,52.80
2022-08-14T17:13:58.489Z,52.90
2022-08-14T17:16:31.874Z,53.20
2022-08-14T17:19:03.529Z,53.60
2022-08-14T17:21:38.067Z,53.90
2022-08-14T17:27:00.116Z,54.60
2022-08-14T17:29:54.359Z,55.00
2022-08-14T17:32:28.192Z,55.30
2022-08-14T17:35:01.745Z,55.60
2022-08-14T17:37:35.478Z,55.60
2022-08-14T17:40:22.841Z,56.00
2022-08-14T17:43:00.862Z,56.30
2022-08-14T17:45:46.770Z,56.70
2022-08-14T17:49:14.660Z,56.90
2022-08-14T17:51:23.336Z,57.30
2022-08-14T17:54:02.682Z,57.60
2022-08-14T17:56:32.905Z,57.90
2022-08-14T17:59:03.979Z,58.20
2022-08-14T18:01:38.755Z,58.50
2022-08-14T18:04:20.130Z,58.70
2022-08-14T18:06:58.916Z,59.10
2022-08-14T18:09:38.803Z,59.20
2022-08-14T18:12:09.419Z,59.50
2022-08-14T18:15:01.246Z,59.90
2022-08-14T18:17:37.565Z,60.40
2022-08-14T18:20:16.070Z,60.70
2022-08-14T18:22:55.197Z,61.20
2022-08-14T18:25:23.303Z,61.50
2022-08-14T18:27:52.388Z,61.70
2022-08-14T18:30:33.482Z,62.00
2022-08-14T18:33:20.994Z,62.50
2022-08-14T18:35:59.146Z,63.10
2022-08-14T18:38:42.990Z,63.50
2022-08-14T18:41:37.136Z,63.80
2022-08-14T18:44:10.310Z,64.30
2022-08-14T18:47:15.171Z,64.80
2022-08-14T18:50:27.085Z,65.60
2022-08-14T18:52:54.214Z,65.60
2022-08-14T18:55:52.864Z,65.10
2022-08-14T18:58:31.733Z,65.60
2022-08-14T19:01:04.481Z,66.20
2022-08-14T19:03:58.182Z,66.50
2022-08-14T19:06:56.461Z,67.10
2022-08-14T19:09:53.734Z,67.40
2022-08-14T19:13:00.334Z,67.80
2022-08-14T19:15:29.973Z,68.20
2022-08-14T19:18:15.073Z,68.60
2022-08-14T19:20:52.965Z,69.00
2022-08-14T19:23:42.639Z,68.90
2022-08-14T19:26:36.820Z,68.90
2022-08-14T19:29:32.895Z,69.30
2022-08-14T19:32:26.884Z,69.40
2022-08-14T19:35:00.001Z,69.80
2022-08-14T19:37:52.151Z,70.20
2022-08-14T19:40:33.857Z,70.40
2022-08-14T19:43:06.589Z,70.40
2022-08-14T19:45:40.339Z,70.30
2022-08-14T19:48:16.104Z,70.30
2022-08-14T19:50:51.141Z,70.50
2022-08-14T19:53:30.759Z,70.40
2022-08-14T19:56:28.582Z,70.60
2022-08-14T19:59:03.799Z,70.80
2022-08-14T20:01:38.616Z,71.00
2022-08-14T20:04:44.912Z,71.30
2022-08-14T20:07:06.373Z,71.30
2022-08-14T20:11:06.716Z,71.60
2022-08-14T20:12:57.477Z,71.70
2022-08-14T20:15:47.411Z,71.90
2022-08-14T20:18:49.602Z,72.20
2022-08-14T20:21:34.145Z,72.50
2022-08-14T20:24:30.958Z,72.70
2022-08-14T20:27:22.758Z,72.80
2022-08-14T20:30:34.008Z,73.10
2022-08-14T20:33:01.410Z,73.40
2022-08-14T20:35:35.554Z,73.40
2022-08-14T20:38:29.293Z,73.70
2022-08-14T20:41:00.304Z,74.00
2022-08-14T20:43:47.737Z,74.80
2022-08-14T20:46:23.435Z,75.30
2022-08-14T20:49:10.848Z,75.70
2022-08-14T20:51:54.856Z,76.10
2022-08-14T20:54:36.325Z,76.50
2022-08-14T20:57:23.667Z,77.00
2022-08-14T20:59:56.680Z,77.30
2022-08-14T21:02:50.217Z,77.40
2022-08-14T21:05:22.113Z,77.70
2022-08-14T21:08:09.910Z,77.50
2022-08-14T21:10:50.081Z,77.50
2022-08-14T21:14:18.688Z,77.50
2022-08-14T21:16:34.461Z,77.60
2022-08-14T21:19:00.026Z,77.60
2022-08-14T21:21:41.221Z,77.60
2022-08-14T21:24:38.882Z,77.80
2022-08-14T21:27:13.199Z,78.00
2022-08-14T21:29:54.221Z,78.10
2022-08-14T21:32:50.386Z,78.20
2022-08-14T21:35:46.857Z,78.50
2022-08-14T21:38:35.613Z,78.70
2022-08-14T21:41:43.000Z,78.70
2022-08-14T21:44:36.165Z,78.90
2022-08-14T21:50:38.749Z,79.50
2022-08-14T21:53:18.118Z,79.70
2022-08-14T21:55:53.604Z,79.70
2022-08-14T21:58:53.211Z,79.80
2022-08-14T22:01:21.912Z,79.90
2022-08-14T22:04:33.047Z,80.10
2022-08-14T22:06:53.688Z,80.20
2022-08-14T22:09:36.265Z,80.20
2022-08-14T22:12:58.547Z,80.20
2022-08-14T22:15:21.981Z,80.30
2022-08-14T22:17:59.136Z,80.30
2022-08-14T22:20:32.501Z,80.50
2022-08-14T22:23:05.564Z,80.50
2022-08-14T22:25:41.068Z,80.50
2022-08-14T22:28:12.983Z,80.60
2022-08-14T22:30:41.630Z,80.60
2022-08-14T22:33:13.528Z,80.60
2022-08-14T22:35:44.125Z,80.60
2022-08-14T22:38:35.872Z,80.50
2022-08-14T22:41:32.560Z,80.50
2022-08-14T22:43:53.686Z,80.70
2022-08-14T22:46:23.625Z,80.70
2022-08-14T22:48:52.394Z,80.80
2022-08-14T22:51:23.767Z,80.90
2022-08-14T22:53:54.439Z,81.20
2022-08-14T22:56:29.145Z,81.30
2022-08-14T22:58:59.272Z,81.40
2022-08-14T23:01:56.532Z,81.40
2022-08-14T23:04:34.741Z,81.40
2022-08-14T23:07:22.189Z,81.50
2022-08-14T23:09:56.022Z,81.60
2022-08-14T23:12:29.461Z,81.60
2022-08-14T23:14:59.253Z,81.60
2022-08-14T23:17:39.505Z,81.70
2022-08-14T23:20:19.269Z,81.80
2022-08-14T23:22:51.531Z,82.00
2022-08-14T23:25:57.633Z,82.30
2022-08-14T23:28:34.640Z,82.30
2022-08-14T23:30:58.978Z,82.40
2022-08-14T23:33:28.702Z,82.40
2022-08-14T23:35:59.312Z,82.40
2022-08-14T23:38:30.847Z,82.50
2022-08-14T23:41:00.994Z,82.50
2022-08-14T23:43:32.430Z,82.50
2022-08-14T23:46:01.113Z,82.60
2022-08-14T23:48:46.477Z,82.80
2022-08-14T23:51:17.168Z,82.80
2022-08-14T23:53:51.430Z,82.80
2022-08-14T23:56:31.656Z,82.90
2022-08-14T23:59:02.656Z,82.80
